Impacts METAR Board
IDs:

KJFK - New York/Kennedy Int, NY, US

Updated at: 1100 UTC 30 Oct 2020
Potential Impact None Slight Moderate High
Time 29/23Z 30/00Z 30/01Z 30/02Z 30/03Z 30/04Z 30/05Z 30/06Z 30/07Z 30/08Z 30/09Z 30/10Z 30/11Z
Temp50 49 49 48 48 47 46 46 46 45 45 44 43
Dewpt48 46 46 46 46 45 45 44 44 43 43 42 41
Altim29.54 29.57 29.56 29.60 29.63 29.65 29.65 29.65 29.69 29.67 29.65 29.66 29.69
VIS3 10 10 5 4 4 4 5 5 5 7 9 7
CIG13 14 14 12 11 10 9 9 8 9 11 12 14
CoverOVCOVCOVCOVCOVCOVCOVCOVCOVCOVCOVCOVCOVC
FltCatMVFRMVFRMVFRMVFRMVFRMVFRIFRIFRIFRIFRMVFRMVFRMVFR
WX-RA---RA-RA BR-RA BR-RA BR-RA BR-RA BR-RA BR-RA BR-RA-RARA
WDir303030302020202020203020360
WSpd20 20 24 14 11 16 12 14 14 14 16 17 15
WGst27 26 31 -- -- 22 -- -- -- -- -- 23 26
Raw hourly METARs
KJFK 292251Z 03020G27KT 3SM -RA FEW007 BKN013 OVC020 10/09 A2954 RMK AO2 PK WND 03031/2225 SFC VIS 7 SLP004 P0005 T01000089 $
KJFK 292351Z 03020G26KT 10SM BKN014 OVC027 09/08 A2957 RMK AO2 PK WND 03029/2305 RAE42 SLP013 P0002 60039 T00940078 10111 20094 53005 $
KJFK 300051Z 03024G31KT 10SM -RA OVC014 09/08 A2956 RMK AO2 PK WND 03031/0044 RAB49 SLP010 P0000 T00940078 $
KJFK 300151Z 03014KT 5SM -RA BR BKN012 OVC033 09/08 A2960 RMK AO2 PK WND 03028/0054 SLP023 P0003 T00890078 $
KJFK 300251Z 02011KT 4SM -RA BR FEW007 BKN011 OVC016 09/08 A2963 RMK AO2 SLP032 P0003 60006 T00890078 53019 $
KJFK 300351Z 02016G22KT 4SM -RA BR OVC010 08/07 A2965 RMK AO2 SLP039 P0001 T00830072 $
KJFK 300451Z 02012KT 4SM -RA BR BKN009 OVC022 08/07 A2965 RMK AO2 SLP041 P0002 T00780072 401390078 $
KJFK 300551Z 02014KT 5SM -RA BR BKN009 OVC021 08/07 A2965 RMK AO2 RAE11B39 SLP041 P0000 60009 T00780067 10094 20078 51009 $
KJFK 300651Z 02014KT 5SM -RA BR BKN008 OVC019 08/07 A2969 RMK AO2 SLP052 P0002 T00780067 $
KJFK 300751Z 02014KT 5SM -RA BR BKN009 OVC027 07/06 A2967 RMK AO2 SLP046 P0002 T00720061 $
KJFK 300851Z 03016KT 7SM -RA OVC011 07/06 A2965 RMK AO2 PK WND 04026/0821 SLP041 P0000 60004 T00720061 50000 $
KJFK 300951Z 02017G23KT 9SM -RA OVC012 07/06 A2966 RMK AO2 SLP044 P0005 T00670056 $
KJFK 301051Z 36015G26KT 7SM RA BKN014 OVC021 06/05 A2969 RMK AO2 PK WND 02026/1047 SLP054 P0009 T00610050



Page loaded:  11:01 UTC  |   04:01 AM Pacific  |   05:01 AM Mountain  |   06:01 AM Central  |   07:01 AM Eastern

 

ADVISORIES

FORECASTS

FORECASTS

OBSERVATIONS

USER TOOLS

ABOUT US